createdAt,value
2023-03-11T00:00:10.151Z,50.14
2023-03-11T00:01:11.988Z,50.17
2023-03-11T00:02:13.876Z,50.21
2023-03-11T00:03:15.665Z,50.18
2023-03-11T00:04:17.466Z,50.11
2023-03-11T00:05:19.385Z,50.10
2023-03-11T00:06:21.201Z,50.09
2023-03-11T00:07:23.061Z,50.10
2023-03-11T00:08:24.870Z,50.08
2023-03-11T00:09:26.673Z,50.08
2023-03-11T00:10:30.145Z,50.04
2023-03-11T00:11:32.152Z,50.02
2023-03-11T00:12:34.010Z,49.99
2023-03-11T00:13:35.815Z,49.98
2023-03-11T00:14:37.623Z,49.97
2023-03-11T00:15:39.436Z,49.94
2023-03-11T00:16:41.309Z,49.93
2023-03-11T00:17:43.100Z,49.94
2023-03-11T00:18:44.911Z,49.91
2023-03-11T00:19:46.728Z,49.86
2023-03-11T00:20:48.532Z,49.84
2023-03-11T00:21:50.332Z,49.81
2023-03-11T00:22:52.185Z,49.85
2023-03-11T00:23:53.989Z,49.94
2023-03-11T00:24:55.805Z,49.99
2023-03-11T00:25:57.612Z,49.96
2023-03-11T00:26:59.512Z,49.97
2023-03-11T00:28:01.438Z,49.94
2023-03-11T00:29:03.192Z,49.91
2023-03-11T00:30:05.449Z,49.89
2023-03-11T00:31:07.321Z,49.95
2023-03-11T00:32:09.162Z,49.98
2023-03-11T00:33:11.003Z,49.99
2023-03-11T00:34:12.824Z,50.00
2023-03-11T00:35:14.635Z,50.01
2023-03-11T00:36:16.761Z,50.05
2023-03-11T00:37:18.572Z,50.09
2023-03-11T00:38:20.456Z,50.14
2023-03-11T00:39:22.316Z,50.23
2023-03-11T00:40:24.135Z,50.28
2023-03-11T00:41:25.925Z,50.32
2023-03-11T00:42:27.739Z,50.31
2023-03-11T00:43:29.571Z,50.35
2023-03-11T00:44:31.397Z,50.36
2023-03-11T00:45:33.195Z,50.38
2023-03-11T00:46:35.025Z,50.42
2023-03-11T00:47:36.792Z,50.50
2023-03-11T00:48:38.649Z,50.56
2023-03-11T00:49:40.469Z,50.53
2023-03-11T00:50:42.271Z,50.54
2023-03-11T00:51:44.071Z,50.52
2023-03-11T00:52:45.869Z,50.53
2023-03-11T00:53:47.724Z,50.50
2023-03-11T00:54:49.544Z,50.56
2023-03-11T00:55:51.349Z,50.68
2023-03-11T00:56:53.146Z,50.78
2023-03-11T00:57:54.981Z,50.89
2023-03-11T00:58:56.818Z,51.04
2023-03-11T00:59:58.619Z,51.30
2023-03-11T01:01:00.472Z,51.30
2023-03-11T01:02:02.228Z,51.61
2023-03-11T01:03:04.088Z,51.81
2023-03-11T01:04:05.947Z,52.10
2023-03-11T01:05:07.757Z,52.20
2023-03-11T01:06:09.662Z,52.20
2023-03-11T01:07:11.489Z,52.50
2023-03-11T01:08:13.388Z,52.64
2023-03-11T01:09:15.231Z,52.90
2023-03-11T01:10:17.351Z,53.00
2023-03-11T01:11:19.163Z,53.06
2023-03-11T01:12:20.963Z,53.12
2023-03-11T01:13:22.752Z,53.24
2023-03-11T01:14:24.612Z,53.25
2023-03-11T01:15:26.427Z,53.27
2023-03-11T01:16:28.217Z,53.25
2023-03-11T01:17:30.017Z,53.16
2023-03-11T01:18:31.813Z,53.17
2023-03-11T01:19:33.664Z,53.17
2023-03-11T01:20:35.483Z,53.14
2023-03-11T01:21:37.287Z,53.10
2023-03-11T01:22:39.083Z,53.05
2023-03-11T01:23:40.879Z,53.05
2023-03-11T01:24:42.753Z,53.03
2023-03-11T01:25:44.563Z,53.02
2023-03-11T01:26:46.375Z,52.99
2023-03-11T01:27:48.171Z,53.01
2023-03-11T01:28:50.019Z,52.98
2023-03-11T01:29:51.874Z,52.91
2023-03-11T01:30:53.689Z,52.90
2023-03-11T01:31:55.469Z,52.88
2023-03-11T01:32:57.294Z,52.83
2023-03-11T01:33:59.098Z,52.75
2023-03-11T01:35:00.954Z,52.74
2023-03-11T01:36:02.818Z,52.75
2023-03-11T01:37:04.654Z,52.70
2023-03-11T01:38:06.468Z,52.70
2023-03-11T01:39:08.284Z,52.69
2023-03-11T01:40:10.841Z,52.62
2023-03-11T01:41:12.660Z,52.60
2023-03-11T01:42:14.448Z,52.55
2023-03-11T01:43:16.243Z,52.55
2023-03-11T01:44:18.052Z,52.57
2023-03-11T01:45:19.930Z,52.53
2023-03-11T01:46:21.790Z,52.49
2023-03-11T01:47:23.545Z,52.46
2023-03-11T01:48:25.349Z,52.41
2023-03-11T01:49:27.154Z,52.42
2023-03-11T01:50:29.025Z,52.44
2023-03-11T01:51:30.823Z,52.42
2023-03-11T01:52:32.619Z,52.47
2023-03-11T01:53:34.439Z,52.41
2023-03-11T01:54:36.249Z,52.40
2023-03-11T01:55:38.095Z,52.40
2023-03-11T01:56:39.899Z,52.38
2023-03-11T01:57:41.692Z,52.33
2023-03-11T01:58:43.504Z,52.32
2023-03-11T01:59:45.324Z,52.29
2023-03-11T02:00:47.172Z,52.27
2023-03-11T02:01:49.004Z,52.24
2023-03-11T02:02:50.829Z,52.20
2023-03-11T02:03:52.711Z,52.19
2023-03-11T02:04:54.505Z,52.20
2023-03-11T02:05:56.355Z,52.17
2023-03-11T02:06:58.154Z,52.13
2023-03-11T02:07:59.966Z,52.11
2023-03-11T02:09:01.784Z,52.12
2023-03-11T02:10:03.884Z,52.07
2023-03-11T02:11:05.639Z,52.08
2023-03-11T02:12:07.444Z,52.08
2023-03-11T02:13:09.249Z,52.12
2023-03-11T02:14:11.053Z,52.12
2023-03-11T02:15:12.844Z,52.18
2023-03-11T02:16:14.854Z,52.14
2023-03-11T02:17:16.617Z,52.12
2023-03-11T02:18:18.607Z,52.15
2023-03-11T02:19:20.456Z,52.19
2023-03-11T02:20:22.261Z,52.14
2023-03-11T02:21:24.095Z,52.14
2023-03-11T02:22:25.897Z,52.14
2023-03-11T02:23:27.695Z,52.07
2023-03-11T02:24:29.506Z,52.08
2023-03-11T02:25:31.316Z,52.09
2023-03-11T02:26:33.158Z,52.09
2023-03-11T02:27:34.994Z,52.12
2023-03-11T02:28:36.818Z,52.12
2023-03-11T02:29:38.632Z,52.09
2023-03-11T02:30:40.444Z,52.10
2023-03-11T02:31:43.210Z,52.08
2023-03-11T02:32:45.246Z,52.09
2023-03-11T02:33:47.045Z,52.08
2023-03-11T02:34:48.896Z,52.13
2023-03-11T02:35:50.732Z,52.13
2023-03-11T02:36:52.550Z,52.12
2023-03-11T02:37:54.358Z,52.09
2023-03-11T02:38:56.282Z,52.05
2023-03-11T02:39:58.085Z,52.10
2023-03-11T02:40:59.893Z,52.08
2023-03-11T02:42:01.734Z,52.10
2023-03-11T02:43:03.553Z,52.05
2023-03-11T02:44:05.371Z,52.08
2023-03-11T02:45:07.180Z,52.11
2023-03-11T02:46:09.086Z,52.10
2023-03-11T02:47:10.951Z,52.10
2023-03-11T02:48:12.763Z,52.12
2023-03-11T02:49:14.571Z,52.12
2023-03-11T02:50:16.475Z,52.11
2023-03-11T02:51:18.295Z,52.11
2023-03-11T02:52:20.146Z,52.12
2023-03-11T02:53:21.945Z,52.14
2023-03-11T02:54:23.756Z,52.13
2023-03-11T02:55:25.564Z,52.13
2023-03-11T02:56:27.389Z,52.09
2023-03-11T02:57:29.258Z,52.11
2023-03-11T02:58:31.053Z,52.06
2023-03-11T02:59:32.964Z,52.09
2023-03-11T03:00:34.823Z,52.06
2023-03-11T03:01:36.689Z,52.08
2023-03-11T03:02:38.540Z,52.02
2023-03-11T03:03:40.347Z,51.95
2023-03-11T03:04:42.175Z,51.99
2023-03-11T03:05:43.990Z,51.96
2023-03-11T03:06:45.796Z,51.98
2023-03-11T03:07:47.642Z,52.01
2023-03-11T03:08:49.444Z,52.03
2023-03-11T03:09:51.147Z,52.06
2023-03-11T03:10:52.963Z,52.08
2023-03-11T03:11:54.778Z,52.05
2023-03-11T03:12:56.632Z,52.03
2023-03-11T03:13:58.435Z,52.04
2023-03-11T03:15:00.241Z,52.05
2023-03-11T03:16:02.212Z,52.04
2023-03-11T03:17:04.294Z,52.00
2023-03-11T03:18:06.119Z,52.02
2023-03-11T03:19:07.945Z,52.03
2023-03-11T03:20:11.268Z,52.03
2023-03-11T03:21:13.069Z,52.08
2023-03-11T03:22:14.892Z,52.06
2023-03-11T03:23:16.880Z,52.11
2023-03-11T03:24:18.711Z,52.11
2023-03-11T03:25:20.532Z,52.11
2023-03-11T03:26:22.348Z,52.09
2023-03-11T03:27:24.212Z,52.08
2023-03-11T03:28:26.067Z,52.10
2023-03-11T03:29:27.877Z,52.09
2023-03-11T03:30:29.703Z,52.09
2023-03-11T03:31:31.496Z,52.07
2023-03-11T03:32:33.454Z,52.08
2023-03-11T03:33:35.296Z,52.04
2023-03-11T03:34:37.109Z,52.00
2023-03-11T03:35:38.943Z,51.97
2023-03-11T03:36:40.918Z,51.98
2023-03-11T03:37:42.728Z,51.99
2023-03-11T03:38:44.603Z,52.01
2023-03-11T03:39:46.405Z,52.00
2023-03-11T03:40:48.209Z,51.96
2023-03-11T03:41:50.045Z,52.00
2023-03-11T03:42:51.848Z,52.02
2023-03-11T03:43:53.682Z,52.04
2023-03-11T03:44:55.513Z,52.04
2023-03-11T03:45:57.347Z,52.06
2023-03-11T03:46:59.121Z,52.13
2023-03-11T03:48:00.942Z,52.20
2023-03-11T03:49:02.784Z,52.22
2023-03-11T03:50:04.852Z,52.23
2023-03-11T03:51:06.708Z,52.26
2023-03-11T03:52:08.548Z,52.27
2023-03-11T03:53:10.366Z,52.32
2023-03-11T03:54:12.223Z,52.35
2023-03-11T03:55:14.024Z,52.39
2023-03-11T03:56:17.174Z,52.40
2023-03-11T03:57:18.975Z,52.52
2023-03-11T03:58:20.780Z,52.54
2023-03-11T03:59:22.645Z,52.57
2023-03-11T04:00:24.469Z,52.63
2023-03-11T04:01:26.271Z,52.63
2023-03-11T04:02:28.144Z,52.65
2023-03-11T04:03:30.073Z,52.69
2023-03-11T04:04:31.982Z,52.68
2023-03-11T04:05:33.781Z,52.70
2023-03-11T04:06:35.581Z,52.82
2023-03-11T04:07:37.401Z,52.90
2023-03-11T04:08:39.217Z,52.93
2023-03-11T04:09:41.069Z,52.92
2023-03-11T04:10:42.880Z,52.98
2023-03-11T04:11:44.684Z,53.02
2023-03-11T04:12:46.494Z,53.15
2023-03-11T04:13:48.308Z,53.30
2023-03-11T04:14:50.044Z,53.39
2023-03-11T04:15:51.856Z,53.45
2023-03-11T04:16:53.718Z,53.57
2023-03-11T04:17:55.588Z,53.68
2023-03-11T04:18:57.418Z,53.70
2023-03-11T04:19:59.267Z,53.78
2023-03-11T04:21:01.071Z,53.88
2023-03-11T04:22:02.999Z,53.88
2023-03-11T04:23:04.815Z,54.03
2023-03-11T04:24:06.616Z,54.13
2023-03-11T04:25:08.471Z,54.21
2023-03-11T04:26:11.293Z,54.28
2023-03-11T04:27:13.108Z,54.31
2023-03-11T04:28:14.925Z,54.36
2023-03-11T04:29:16.733Z,54.45
2023-03-11T04:30:18.711Z,54.55
2023-03-11T04:31:20.600Z,54.62
2023-03-11T04:32:22.462Z,54.73
2023-03-11T04:33:24.257Z,54.75
2023-03-11T04:34:26.072Z,54.82
2023-03-11T04:35:27.944Z,54.86
2023-03-11T04:36:29.743Z,54.92
2023-03-11T04:37:31.540Z,54.93
2023-03-11T04:38:33.344Z,54.97
2023-03-11T04:39:35.145Z,55.02
2023-03-11T04:40:37.001Z,55.08
2023-03-11T04:41:38.817Z,55.16
2023-03-11T04:42:40.631Z,55.18
2023-03-11T04:43:42.430Z,55.19
2023-03-11T04:44:44.236Z,55.19
2023-03-11T04:45:46.100Z,55.23
2023-03-11T04:46:47.900Z,55.24
2023-03-11T04:47:49.700Z,55.28
2023-03-11T04:48:51.499Z,55.30
2023-03-11T04:49:53.306Z,55.37
2023-03-11T04:50:55.159Z,55.46
2023-03-11T04:51:56.952Z,55.56
2023-03-11T04:52:58.761Z,55.63
2023-03-11T04:54:00.596Z,55.64
2023-03-11T04:55:02.396Z,55.66
2023-03-11T04:56:04.252Z,55.76
2023-03-11T04:57:06.050Z,55.82
2023-03-11T04:58:07.852Z,55.90
2023-03-11T04:59:09.671Z,56.03
2023-03-11T05:00:12.595Z,56.11
2023-03-11T05:01:14.481Z,56.25
2023-03-11T05:02:16.276Z,56.37
2023-03-11T05:03:18.095Z,56.38
2023-03-11T05:04:20.036Z,56.41
2023-03-11T05:05:21.811Z,56.45
2023-03-11T05:06:23.661Z,56.57
2023-03-11T05:07:25.457Z,56.63
2023-03-11T05:08:27.268Z,56.67
2023-03-11T05:09:29.072Z,56.69
2023-03-11T05:10:32.046Z,56.73
2023-03-11T05:11:34.076Z,56.76
2023-03-11T05:12:35.886Z,56.79
2023-03-11T05:13:37.705Z,56.77
2023-03-11T05:14:39.496Z,56.75
2023-03-11T05:15:41.611Z,56.79
2023-03-11T05:16:43.465Z,56.86
2023-03-11T05:17:45.259Z,56.87
2023-03-11T05:18:47.059Z,56.86
2023-03-11T05:19:48.886Z,56.84
2023-03-11T05:20:50.697Z,56.87
2023-03-11T05:21:52.557Z,56.90
2023-03-11T05:22:54.363Z,56.91
2023-03-11T05:23:56.165Z,56.88
2023-03-11T05:24:58.017Z,56.87
2023-03-11T05:25:59.825Z,56.86
2023-03-11T05:27:01.678Z,56.87
2023-03-11T05:28:03.479Z,56.80
2023-03-11T05:29:05.276Z,56.83
2023-03-11T05:30:07.395Z,56.82
2023-03-11T05:31:09.297Z,56.80
2023-03-11T05:32:11.151Z,56.81
2023-03-11T05:33:12.983Z,56.71
2023-03-11T05:34:14.766Z,56.71
2023-03-11T05:35:16.569Z,56.73
2023-03-11T05:36:18.374Z,56.72
2023-03-11T05:37:20.241Z,56.66
2023-03-11T05:38:22.065Z,56.61
2023-03-11T05:39:23.876Z,56.57
2023-03-11T05:40:25.687Z,56.54
2023-03-11T05:41:27.480Z,56.51
2023-03-11T05:42:29.328Z,56.47
2023-03-11T05:43:31.139Z,56.44
2023-03-11T05:44:32.930Z,56.38
2023-03-11T05:45:34.731Z,56.36
2023-03-11T05:46:36.728Z,56.34
2023-03-11T05:47:38.592Z,56.26
2023-03-11T05:48:40.386Z,56.24
2023-03-11T05:49:42.188Z,56.18
2023-03-11T05:50:43.986Z,56.16
2023-03-11T05:51:45.793Z,56.13
2023-03-11T05:52:47.609Z,56.10
2023-03-11T05:53:49.401Z,56.00
2023-03-11T05:54:51.210Z,55.95
2023-03-11T05:55:53.112Z,56.01
2023-03-11T05:56:54.935Z,55.98
2023-03-11T05:57:56.806Z,55.97
2023-03-11T05:58:58.583Z,56.02
2023-03-11T06:00:00.382Z,56.02
2023-03-11T06:01:02.192Z,56.02
2023-03-11T06:02:04.005Z,56.00
2023-03-11T06:03:05.744Z,56.05
2023-03-11T06:04:07.616Z,56.03
2023-03-11T06:05:12.198Z,56.04
2023-03-11T06:06:13.573Z,56.00
2023-03-11T06:07:15.385Z,56.00
2023-03-11T06:08:17.240Z,55.99
2023-03-11T06:09:19.026Z,55.97
2023-03-11T06:10:20.831Z,55.97
2023-03-11T06:11:22.621Z,55.99
2023-03-11T06:12:24.446Z,55.98
2023-03-11T06:13:26.287Z,55.98
2023-03-11T06:14:28.097Z,55.99
2023-03-11T06:15:29.907Z,56.02
2023-03-11T06:16:31.771Z,56.00
2023-03-11T06:17:33.502Z,56.00
2023-03-11T06:18:35.351Z,56.04
2023-03-11T06:19:37.167Z,56.11
2023-03-11T06:20:39.009Z,56.10
2023-03-11T06:21:40.923Z,56.14
2023-03-11T06:22:42.739Z,56.12
2023-03-11T06:23:44.602Z,56.16
2023-03-11T06:24:46.398Z,56.15
2023-03-11T06:25:48.197Z,56.20
2023-03-11T06:26:49.994Z,56.23
2023-03-11T06:27:51.811Z,56.29
2023-03-11T06:28:53.670Z,56.33
2023-03-11T06:29:55.468Z,56.37
2023-03-11T06:30:57.367Z,56.42
2023-03-11T06:31:59.225Z,56.47
2023-03-11T06:33:00.999Z,56.53
2023-03-11T06:34:02.834Z,56.60
2023-03-11T06:35:04.648Z,56.61
2023-03-11T06:36:06.832Z,56.68
2023-03-11T06:37:08.690Z,56.75
2023-03-11T06:38:10.493Z,56.83
2023-03-11T06:39:12.355Z,56.88
2023-03-11T06:40:14.462Z,56.96
2023-03-11T06:41:16.255Z,57.00
2023-03-11T06:42:18.063Z,57.06
2023-03-11T06:43:20.169Z,57.14
2023-03-11T06:44:22.021Z,57.19
2023-03-11T06:45:23.850Z,57.30
2023-03-11T06:46:25.659Z,57.34
2023-03-11T06:47:27.463Z,57.35
2023-03-11T06:48:29.262Z,57.41
2023-03-11T06:49:31.112Z,57.48
2023-03-11T06:50:33.153Z,57.46
2023-03-11T06:51:34.960Z,57.52
2023-03-11T06:52:36.763Z,57.57
2023-03-11T06:53:38.563Z,57.63
2023-03-11T06:54:40.424Z,57.63
2023-03-11T06:55:42.233Z,57.74
2023-03-11T06:56:44.191Z,57.72
2023-03-11T06:57:46.404Z,57.73
2023-03-11T06:58:48.204Z,57.73
2023-03-11T06:59:50.061Z,57.79
2023-03-11T07:00:51.878Z,57.77
2023-03-11T07:01:53.702Z,57.78
2023-03-11T07:02:55.524Z,57.82
2023-03-11T07:03:57.387Z,57.89
2023-03-11T07:04:59.284Z,57.91
2023-03-11T07:06:01.128Z,57.98
2023-03-11T07:07:02.966Z,58.05
2023-03-11T07:08:05.031Z,58.11
2023-03-11T07:09:07.303Z,58.16
2023-03-11T07:10:09.260Z,58.14
2023-03-11T07:11:11.070Z,58.17
2023-03-11T07:12:12.906Z,58.25
2023-03-11T07:13:15.394Z,58.33
2023-03-11T07:14:17.234Z,58.37
2023-03-11T07:15:19.068Z,58.43
2023-03-11T07:16:21.024Z,58.45
2023-03-11T07:17:22.986Z,58.50
2023-03-11T07:18:24.780Z,58.56
2023-03-11T07:19:26.599Z,58.60
2023-03-11T07:20:28.564Z,58.62
2023-03-11T07:21:30.380Z,58.71
2023-03-11T07:22:32.177Z,58.76
2023-03-11T07:23:33.981Z,58.75
2023-03-11T07:24:35.794Z,58.71
2023-03-11T07:25:37.681Z,58.76
2023-03-11T07:26:39.496Z,58.79
2023-03-11T07:27:41.322Z,58.84
2023-03-11T07:28:43.130Z,58.85
2023-03-11T07:29:45.058Z,58.83
2023-03-11T07:30:46.919Z,58.89
2023-03-11T07:31:48.739Z,58.90
2023-03-11T07:32:50.552Z,58.96
2023-03-11T07:33:52.450Z,59.00
2023-03-11T07:34:54.273Z,59.06
2023-03-11T07:35:56.177Z,59.12
2023-03-11T07:36:58.280Z,59.18
2023-03-11T07:38:00.100Z,59.11
2023-03-11T07:39:04.070Z,59.11
2023-03-11T07:40:05.825Z,59.28
2023-03-11T07:41:07.708Z,59.33
2023-03-11T07:42:09.542Z,59.39
2023-03-11T07:43:11.384Z,59.34
2023-03-11T07:44:13.198Z,59.43
2023-03-11T07:45:15.317Z,59.42
2023-03-11T07:46:17.694Z,59.44
2023-03-11T07:47:19.734Z,59.48
2023-03-11T07:48:21.528Z,59.52
2023-03-11T07:49:23.362Z,59.53
2023-03-11T07:50:25.184Z,59.59
2023-03-11T07:51:27.036Z,59.57
2023-03-11T07:52:28.870Z,59.62
2023-03-11T07:53:30.728Z,59.68
2023-03-11T07:54:32.668Z,59.72
2023-03-11T07:55:36.272Z,59.72
2023-03-11T07:56:38.139Z,59.77
2023-03-11T07:57:39.938Z,59.82
2023-03-11T07:58:42.450Z,59.80
2023-03-11T07:59:45.336Z,59.76
2023-03-11T08:00:47.164Z,59.77
2023-03-11T08:01:49.015Z,59.86
2023-03-11T08:02:50.855Z,59.88
2023-03-11T08:03:52.715Z,59.96
2023-03-11T08:04:54.580Z,59.97
2023-03-11T08:05:56.381Z,60.01
2023-03-11T08:06:58.336Z,60.01
2023-03-11T08:08:00.160Z,60.05
2023-03-11T08:09:01.969Z,60.08
2023-03-11T08:10:03.784Z,60.10
2023-03-11T08:11:05.599Z,60.10
2023-03-11T08:12:07.500Z,60.13
2023-03-11T08:13:09.313Z,60.12
2023-03-11T08:14:11.141Z,60.11
2023-03-11T08:15:12.929Z,60.15
2023-03-11T08:16:14.843Z,60.20
2023-03-11T08:17:17.922Z,60.23
2023-03-11T08:18:19.762Z,60.28
2023-03-11T08:19:21.607Z,60.33
2023-03-11T08:20:23.536Z,60.38
2023-03-11T08:21:25.339Z,60.41
2023-03-11T08:22:27.186Z,60.44
2023-03-11T08:23:28.997Z,60.50
2023-03-11T08:24:30.836Z,60.54
2023-03-11T08:25:32.665Z,60.18
2023-03-11T08:26:34.485Z,60.18
2023-03-11T08:27:36.345Z,60.57
2023-03-11T08:28:38.198Z,60.66
2023-03-11T08:29:40.029Z,60.61
2023-03-11T08:30:42.126Z,60.67
2023-03-11T08:31:44.035Z,60.73
2023-03-11T08:32:45.972Z,60.79
2023-03-11T08:33:47.821Z,60.89
2023-03-11T08:34:49.737Z,60.92
2023-03-11T08:35:51.679Z,60.94
2023-03-11T08:36:53.650Z,60.98
2023-03-11T08:37:55.628Z,60.90
2023-03-11T08:38:57.454Z,60.96
2023-03-11T08:39:59.245Z,61.06
2023-03-11T08:41:01.047Z,61.09
2023-03-11T08:42:02.849Z,61.14
2023-03-11T08:43:04.783Z,61.16
2023-03-11T08:44:06.586Z,61.11
2023-03-11T08:45:08.497Z,61.08
2023-03-11T08:46:10.437Z,61.08
2023-03-11T08:47:12.217Z,61.11
2023-03-11T08:48:14.176Z,61.10
2023-03-11T08:49:15.941Z,61.14
2023-03-11T08:50:17.857Z,61.19
2023-03-11T08:51:21.934Z,61.15
2023-03-11T08:52:23.788Z,61.18
2023-03-11T08:53:25.665Z,61.29
2023-03-11T08:54:27.489Z,61.26
2023-03-11T08:55:29.287Z,61.22
2023-03-11T08:56:32.260Z,61.29
2023-03-11T08:57:34.077Z,61.36
2023-03-11T08:58:35.944Z,61.37
2023-03-11T08:59:37.746Z,61.36
2023-03-11T09:00:39.559Z,61.47
2023-03-11T09:01:41.379Z,61.50
2023-03-11T09:02:43.214Z,61.48
2023-03-11T09:03:45.036Z,61.42
2023-03-11T09:04:46.841Z,61.43
2023-03-11T09:05:48.661Z,61.43
2023-03-11T09:06:50.473Z,61.41
2023-03-11T09:07:52.301Z,61.43
2023-03-11T09:08:54.101Z,61.47
2023-03-11T09:09:55.901Z,61.47
2023-03-11T09:10:57.718Z,61.46
2023-03-11T09:11:59.523Z,61.48
2023-03-11T09:13:01.339Z,61.52
2023-03-11T09:14:03.183Z,61.57
2023-03-11T09:15:04.991Z,61.57
2023-03-11T09:16:07.121Z,61.60
2023-03-11T09:17:08.930Z,61.61
2023-03-11T09:18:10.739Z,61.59
2023-03-11T09:19:12.686Z,61.60
2023-03-11T09:20:15.100Z,61.63
2023-03-11T09:21:16.904Z,61.64
2023-03-11T09:22:18.741Z,61.67
2023-03-11T09:23:20.564Z,61.74
2023-03-11T09:24:22.412Z,61.73
2023-03-11T09:25:24.221Z,61.77
2023-03-11T09:26:26.019Z,61.75
2023-03-11T09:27:27.853Z,61.80
2023-03-11T09:28:29.675Z,61.86
2023-03-11T09:29:31.523Z,61.91
2023-03-11T09:30:33.347Z,61.91
2023-03-11T09:31:35.242Z,61.94
2023-03-11T09:32:37.098Z,62.04
2023-03-11T09:33:38.955Z,62.06
2023-03-11T09:34:40.810Z,62.16
2023-03-11T09:35:42.641Z,62.24
2023-03-11T09:36:44.575Z,62.26
2023-03-11T09:37:46.352Z,62.23
2023-03-11T09:38:48.170Z,62.26
2023-03-11T09:39:50.040Z,62.28
2023-03-11T09:40:51.858Z,62.31
2023-03-11T09:41:58.551Z,62.27
2023-03-11T09:42:57.281Z,62.27
2023-03-11T09:43:59.123Z,62.27
2023-03-11T09:45:00.957Z,62.27
2023-03-11T09:46:02.874Z,62.29
2023-03-11T09:47:04.720Z,62.29
2023-03-11T09:48:06.563Z,62.30
2023-03-11T09:49:08.388Z,62.29
2023-03-11T09:50:10.272Z,62.30
2023-03-11T09:51:12.047Z,62.30
2023-03-11T09:52:13.864Z,62.36
2023-03-11T09:53:15.677Z,62.43
2023-03-11T09:54:17.500Z,62.42
2023-03-11T09:55:19.378Z,62.48
2023-03-11T09:56:21.300Z,62.53
2023-03-11T09:57:23.120Z,62.53
2023-03-11T09:58:24.933Z,62.61
2023-03-11T09:59:26.747Z,62.64
2023-03-11T10:00:28.598Z,62.66
2023-03-11T10:01:30.405Z,62.62
2023-03-11T10:02:32.508Z,62.57
2023-03-11T10:03:34.431Z,62.57
2023-03-11T10:04:36.241Z,62.57
2023-03-11T10:05:38.100Z,62.59
2023-03-11T10:06:39.936Z,62.59
2023-03-11T10:07:41.737Z,62.62
2023-03-11T10:08:43.533Z,62.58
2023-03-11T10:09:45.243Z,62.54
2023-03-11T10:10:47.123Z,62.51
2023-03-11T10:11:48.947Z,62.42
2023-03-11T10:12:50.637Z,62.36
2023-03-11T10:13:52.449Z,62.36
2023-03-11T10:14:54.242Z,62.34
2023-03-11T10:15:56.106Z,62.40
2023-03-11T10:16:58.011Z,62.41
2023-03-11T10:17:59.815Z,62.35
2023-03-11T10:19:01.612Z,62.26
2023-03-11T10:20:03.428Z,62.19
2023-03-11T10:21:05.281Z,62.20
2023-03-11T10:22:07.098Z,62.20
2023-03-11T10:23:08.914Z,62.19
2023-03-11T10:24:10.711Z,62.16
2023-03-11T10:25:12.542Z,62.16
2023-03-11T10:26:14.707Z,62.19
2023-03-11T10:27:16.513Z,62.14
2023-03-11T10:28:18.312Z,62.13
2023-03-11T10:29:20.152Z,62.10
2023-03-11T10:30:21.935Z,62.12
2023-03-11T10:31:23.845Z,62.05
2023-03-11T10:32:28.165Z,61.97
2023-03-11T10:33:29.965Z,61.87
2023-03-11T10:34:31.770Z,61.83
2023-03-11T10:35:33.623Z,61.86
2023-03-11T10:36:35.551Z,61.78
2023-03-11T10:37:48.834Z,61.76
2023-03-11T10:38:40.980Z,61.73
2023-03-11T10:39:42.794Z,61.73
2023-03-11T10:40:44.717Z,61.75
2023-03-11T10:41:46.582Z,61.66
2023-03-11T10:42:48.736Z,61.58
2023-03-11T10:43:50.544Z,61.53
2023-03-11T10:44:52.764Z,61.56
2023-03-11T10:45:54.586Z,61.64
2023-03-11T10:46:56.498Z,61.57
2023-03-11T10:47:58.332Z,61.53
2023-03-11T10:49:00.153Z,61.60
2023-03-11T10:50:01.927Z,61.43
2023-03-11T10:51:03.778Z,61.41
2023-03-11T10:52:05.606Z,61.47
2023-03-11T10:53:07.413Z,61.41
2023-03-11T10:54:09.217Z,61.49
2023-03-11T10:55:11.011Z,61.48
2023-03-11T10:56:15.113Z,61.52
2023-03-11T10:57:17.196Z,61.61
2023-03-11T10:58:19.014Z,61.63
2023-03-11T10:59:20.832Z,61.64
2023-03-11T11:00:22.686Z,61.68
2023-03-11T11:01:24.517Z,61.58
2023-03-11T11:02:26.360Z,61.52
2023-03-11T11:03:28.170Z,61.51
2023-03-11T11:04:30.025Z,61.54
2023-03-11T11:05:31.777Z,61.45
2023-03-11T11:06:33.590Z,61.40
2023-03-11T11:07:35.452Z,61.45
2023-03-11T11:08:37.263Z,61.50
2023-03-11T11:09:39.063Z,61.50
2023-03-11T11:10:40.977Z,61.47
2023-03-11T11:11:42.777Z,61.41
2023-03-11T11:12:44.646Z,61.41
2023-03-11T11:13:46.488Z,61.41
2023-03-11T11:14:48.278Z,61.39
2023-03-11T11:15:50.072Z,61.40
2023-03-11T11:16:51.982Z,61.38
2023-03-11T11:17:53.881Z,61.38
2023-03-11T11:18:55.972Z,61.40
2023-03-11T11:19:57.785Z,61.43
2023-03-11T11:20:59.689Z,61.45
2023-03-11T11:22:01.498Z,61.36
2023-03-11T11:23:03.361Z,61.37
2023-03-11T11:24:05.179Z,61.38
2023-03-11T11:25:07.008Z,61.37
2023-03-11T11:26:08.894Z,61.39
2023-03-11T11:27:10.711Z,61.48
2023-03-11T11:28:12.666Z,61.51
2023-03-11T11:29:14.529Z,61.56
2023-03-11T11:30:16.342Z,61.47
2023-03-11T11:31:18.162Z,61.45
2023-03-11T11:32:20.034Z,61.53
2023-03-11T11:33:21.914Z,61.58
2023-03-11T11:34:23.722Z,61.67
2023-03-11T11:35:25.583Z,61.73
2023-03-11T11:36:27.476Z,61.79
2023-03-11T11:37:29.302Z,61.80
2023-03-11T11:38:31.176Z,61.79
2023-03-11T11:39:32.977Z,61.80
2023-03-11T11:40:34.796Z,61.84
2023-03-11T11:41:36.590Z,61.86
2023-03-11T11:42:38.412Z,61.92
2023-03-11T11:43:40.276Z,61.97
2023-03-11T11:44:42.106Z,61.99
2023-03-11T11:45:43.944Z,62.02
2023-03-11T11:46:45.727Z,62.01
2023-03-11T11:47:47.644Z,62.00
2023-03-11T11:48:49.527Z,62.01
2023-03-11T11:49:51.261Z,62.06
2023-03-11T11:50:53.204Z,62.07
2023-03-11T11:51:55.013Z,62.07
2023-03-11T11:52:56.865Z,62.05
2023-03-11T11:53:58.717Z,62.05
2023-03-11T11:55:00.545Z,62.01
2023-03-11T11:56:02.363Z,61.99
2023-03-11T11:57:04.160Z,61.93
2023-03-11T11:58:05.988Z,61.90
2023-03-11T11:59:07.872Z,61.92
2023-03-11T12:00:12.054Z,61.90
2023-03-11T12:01:13.900Z,61.92
2023-03-11T12:02:15.722Z,61.95
2023-03-11T12:03:18.654Z,61.94
2023-03-11T12:04:20.508Z,61.97
2023-03-11T12:05:22.344Z,62.02
2023-03-11T12:06:24.717Z,62.04
2023-03-11T12:07:26.545Z,61.92
2023-03-11T12:08:28.353Z,61.85
2023-03-11T12:09:30.238Z,61.78
2023-03-11T12:10:32.133Z,61.75
2023-03-11T12:11:33.967Z,61.74
2023-03-11T12:12:35.802Z,61.73
2023-03-11T12:13:37.616Z,61.72
2023-03-11T12:14:39.459Z,61.71
2023-03-11T12:15:41.293Z,61.65
2023-03-11T12:16:43.224Z,61.65
2023-03-11T12:17:45.071Z,61.64
2023-03-11T12:18:46.852Z,61.60
2023-03-11T12:19:48.736Z,61.59
2023-03-11T12:20:50.550Z,61.58
2023-03-11T12:21:52.352Z,61.55
2023-03-11T12:22:54.163Z,61.51
2023-03-11T12:23:55.972Z,61.49
2023-03-11T12:24:57.933Z,61.47
2023-03-11T12:25:59.716Z,61.39
2023-03-11T12:27:01.554Z,61.42
2023-03-11T12:28:03.353Z,61.45
2023-03-11T12:29:05.176Z,61.43
2023-03-11T12:30:07.742Z,61.36
2023-03-11T12:31:09.641Z,61.34
2023-03-11T12:32:11.481Z,61.36
2023-03-11T12:33:13.327Z,61.36
2023-03-11T12:34:15.182Z,61.30
2023-03-11T12:35:17.017Z,61.33
2023-03-11T12:36:19.245Z,61.38
2023-03-11T12:37:21.056Z,61.35
2023-03-11T12:38:22.888Z,61.31
2023-03-11T12:39:24.687Z,61.27
2023-03-11T12:40:26.552Z,61.20
2023-03-11T12:41:28.349Z,61.18
2023-03-11T12:42:30.189Z,61.21
2023-03-11T12:43:32.028Z,61.19
2023-03-11T12:44:33.830Z,61.19
2023-03-11T12:45:35.689Z,61.16
2023-03-11T12:46:37.525Z,61.09
2023-03-11T12:47:39.316Z,61.07
2023-03-11T12:48:41.174Z,60.97
2023-03-11T12:49:42.975Z,60.88
2023-03-11T12:50:45.059Z,60.87
2023-03-11T12:51:46.863Z,60.84
2023-03-11T12:52:48.667Z,60.87
2023-03-11T12:53:50.473Z,60.79
2023-03-11T12:54:52.279Z,60.76
2023-03-11T12:55:54.166Z,60.72
2023-03-11T12:56:56.133Z,60.70
2023-03-11T12:57:57.940Z,60.64
2023-03-11T12:58:59.741Z,60.59
2023-03-11T13:00:01.559Z,60.53
2023-03-11T13:01:03.434Z,60.45
2023-03-11T13:02:05.268Z,60.43
2023-03-11T13:03:07.073Z,60.54
2023-03-11T13:04:08.836Z,60.59
2023-03-11T13:05:10.669Z,60.60
2023-03-11T13:06:12.736Z,60.61
2023-03-11T13:07:14.540Z,60.60
2023-03-11T13:08:16.359Z,60.54
2023-03-11T13:09:18.190Z,60.49
2023-03-11T13:10:20.010Z,60.48
2023-03-11T13:11:21.893Z,60.44
2023-03-11T13:12:23.732Z,60.43
2023-03-11T13:13:25.557Z,60.46
2023-03-11T13:14:27.392Z,60.50
2023-03-11T13:15:29.210Z,60.50
2023-03-11T13:16:31.212Z,60.55